Gill, Indiana
Current Conditions -  °F | °C
As of 11:15 PM on Tuesday 21 Oct 2014 (Local Time) from KRSV Reporting Station
Clear Clear  
Wind Chill: 45°   Ceiling: Unl
Heat Index: 47°   Visibility: 10mi
Dew Point: 44°   Wind: 6mph
Humidity: 90%   Direction: 10°N
Pressure: 30.22"   Gusts: NA
Location:  39.0138°N, 87.523°W
Report Text: KRSV 220315Z AUTO 01005KT 10SM CLR 09/07 A3022 RMK AO2 T00850069
Loading
Personal Weather Stations






























Interactive Weather Map
Tropical Storm Tracking
New forecast layout! Learn more

10-Day Weather Forecast

Advertisements
Track Severe Weather on mobile